createdAt,value
2023-01-25T00:00:41.909Z,0.00
2023-01-25T00:01:41.890Z,0.00
2023-01-25T00:02:41.927Z,0.00
2023-01-25T00:03:41.860Z,0.00
2023-01-25T00:04:41.843Z,0.00
2023-01-25T00:05:41.819Z,0.00
2023-01-25T00:06:41.804Z,0.00
2023-01-25T00:07:41.785Z,0.00
2023-01-25T00:08:41.770Z,0.00
2023-01-25T00:09:41.771Z,0.00
2023-01-25T00:10:41.737Z,0.00
2023-01-25T00:11:41.712Z,0.00
2023-01-25T00:12:41.700Z,0.00
2023-01-25T00:13:41.721Z,0.00
2023-01-25T00:14:41.679Z,0.00
2023-01-25T00:15:41.656Z,0.00
2023-01-25T00:16:41.768Z,0.00
2023-01-25T00:17:41.617Z,0.00
2023-01-25T00:18:41.597Z,0.00
2023-01-25T00:19:41.577Z,0.00
2023-01-25T00:20:41.561Z,0.00
2023-01-25T00:21:41.544Z,0.00
2023-01-25T00:22:41.527Z,0.00
2023-01-25T00:23:41.508Z,0.00
2023-01-25T00:24:41.511Z,0.00
2023-01-25T00:25:41.496Z,0.00
2023-01-25T00:26:41.481Z,0.00
2023-01-25T00:27:41.437Z,0.00
2023-01-25T00:28:41.429Z,0.00
2023-01-25T00:29:41.409Z,0.00
2023-01-25T00:30:41.388Z,0.00
2023-01-25T00:31:41.567Z,0.00
2023-01-25T00:32:41.473Z,0.00
2023-01-25T00:33:41.355Z,0.00
2023-01-25T00:34:41.319Z,0.00
2023-01-25T00:35:41.300Z,0.00
2023-01-25T00:36:41.291Z,0.00
2023-01-25T00:37:41.265Z,0.00
2023-01-25T00:38:41.249Z,0.00
2023-01-25T00:39:41.228Z,0.00
2023-01-25T00:40:41.223Z,0.00
2023-01-25T00:41:41.219Z,0.00
2023-01-25T00:42:41.181Z,0.00
2023-01-25T00:43:41.160Z,0.00
2023-01-25T00:44:41.146Z,0.00
2023-01-25T00:45:41.181Z,0.00
2023-01-25T00:46:41.122Z,0.00
2023-01-25T00:47:41.093Z,0.00
2023-01-25T00:48:41.082Z,0.00
2023-01-25T00:49:41.064Z,0.00
2023-01-25T00:50:41.045Z,0.00
2023-01-25T00:51:41.020Z,0.00
2023-01-25T00:52:41.017Z,0.00
2023-01-25T00:53:40.984Z,0.00
2023-01-25T00:54:40.969Z,0.00
2023-01-25T00:55:40.949Z,0.00
2023-01-25T00:56:40.936Z,0.00
2023-01-25T00:57:40.965Z,0.00
2023-01-25T00:58:40.904Z,0.00
2023-01-25T00:59:40.881Z,0.00
2023-01-25T01:00:40.871Z,0.00
2023-01-25T01:01:40.854Z,0.00
2023-01-25T01:02:40.887Z,0.00
2023-01-25T01:03:40.822Z,0.00
2023-01-25T01:04:40.936Z,0.00
2023-01-25T01:05:40.777Z,0.00
2023-01-25T01:06:40.771Z,0.00
2023-01-25T01:07:40.741Z,0.00
2023-01-25T01:08:40.729Z,0.00
2023-01-25T01:09:40.706Z,0.00
2023-01-25T01:10:40.698Z,0.00
2023-01-25T01:11:40.686Z,0.00
2023-01-25T01:12:40.659Z,0.00
2023-01-25T01:13:40.659Z,0.00
2023-01-25T01:14:40.628Z,0.00
2023-01-25T01:15:40.606Z,0.00
2023-01-25T01:16:40.639Z,0.00
2023-01-25T01:17:40.586Z,0.00
2023-01-25T01:18:40.557Z,0.00
2023-01-25T01:19:40.534Z,0.00
2023-01-25T01:20:40.524Z,0.00
2023-01-25T01:21:40.502Z,0.00
2023-01-25T01:22:40.489Z,0.00
2023-01-25T01:23:40.471Z,0.00
2023-01-25T01:24:40.450Z,0.00
2023-01-25T01:25:40.435Z,0.00
2023-01-25T01:26:40.415Z,0.00
2023-01-25T01:27:40.396Z,0.00
2023-01-25T01:28:40.380Z,0.00
2023-01-25T01:29:40.389Z,0.00
2023-01-25T01:30:40.362Z,0.00
2023-01-25T01:31:40.404Z,0.00
2023-01-25T01:32:40.470Z,0.00
2023-01-25T01:33:40.295Z,0.00
2023-01-25T01:34:40.290Z,0.00
2023-01-25T01:35:40.262Z,0.00
2023-01-25T01:36:40.243Z,0.00
2023-01-25T01:37:40.225Z,0.00
2023-01-25T01:38:40.209Z,0.00
2023-01-25T01:39:40.200Z,0.00
2023-01-25T01:40:40.172Z,0.00
2023-01-25T01:41:40.159Z,0.00
2023-01-25T01:42:40.136Z,0.00
2023-01-25T01:43:40.122Z,0.00
2023-01-25T01:44:40.104Z,0.00
2023-01-25T01:45:40.170Z,0.00
2023-01-25T01:46:40.079Z,0.00
2023-01-25T01:47:40.060Z,0.00
2023-01-25T01:48:40.068Z,0.00
2023-01-25T01:49:40.031Z,0.00
2023-01-25T01:50:39.998Z,0.00
2023-01-25T01:51:40.001Z,0.00
2023-01-25T01:52:39.971Z,0.00
2023-01-25T01:53:39.950Z,0.00
2023-01-25T01:54:39.929Z,0.00
2023-01-25T01:55:39.917Z,0.00
2023-01-25T01:56:39.931Z,0.00
2023-01-25T01:57:39.881Z,0.00
2023-01-25T01:58:39.860Z,0.00
2023-01-25T01:59:39.847Z,0.00
2023-01-25T02:00:39.839Z,0.00
2023-01-25T02:01:39.891Z,0.00
2023-01-25T02:02:39.892Z,0.00
2023-01-25T02:03:39.777Z,0.00
2023-01-25T02:04:39.756Z,0.00
2023-01-25T02:05:39.742Z,0.00
2023-01-25T02:06:39.720Z,0.00
2023-01-25T02:07:39.707Z,0.00
2023-01-25T02:08:39.685Z,0.00
2023-01-25T02:09:39.674Z,0.00
2023-01-25T02:10:39.656Z,0.00
2023-01-25T02:11:39.638Z,0.00
2023-01-25T02:12:39.636Z,0.00
2023-01-25T02:13:39.601Z,0.00
2023-01-25T02:14:39.584Z,0.00
2023-01-25T02:15:39.631Z,0.00
2023-01-25T02:16:39.548Z,0.00
2023-01-25T02:17:39.551Z,0.00
2023-01-25T02:18:39.516Z,0.00
2023-01-25T02:19:39.531Z,0.00
2023-01-25T02:20:39.500Z,0.00
2023-01-25T02:21:39.479Z,0.00
2023-01-25T02:22:39.451Z,0.00
2023-01-25T02:23:39.429Z,0.00
2023-01-25T02:24:39.408Z,0.00
2023-01-25T02:25:39.395Z,0.00
2023-01-25T02:26:39.374Z,0.00
2023-01-25T02:27:39.359Z,0.00
2023-01-25T02:28:39.340Z,0.00
2023-01-25T02:29:39.326Z,0.00
2023-01-25T02:30:39.305Z,0.00
2023-01-25T02:31:39.418Z,0.00
2023-01-25T02:32:39.270Z,0.00
2023-01-25T02:33:39.278Z,0.00
2023-01-25T02:34:39.233Z,0.00
2023-01-25T02:35:39.225Z,0.00
2023-01-25T02:36:39.199Z,0.00
2023-01-25T02:37:39.195Z,0.00
2023-01-25T02:38:39.179Z,0.00
2023-01-25T02:39:39.150Z,0.00
2023-01-25T02:40:39.129Z,0.00
2023-01-25T02:41:39.113Z,0.00
2023-01-25T02:42:39.095Z,0.00
2023-01-25T02:43:39.084Z,0.00
2023-01-25T02:44:39.061Z,0.00
2023-01-25T02:45:39.061Z,0.00
2023-01-25T02:46:39.142Z,0.00
2023-01-25T02:47:39.011Z,0.00
2023-01-25T02:48:38.988Z,0.00
2023-01-25T02:49:38.996Z,0.00
2023-01-25T02:50:38.952Z,0.00
2023-01-25T02:51:38.939Z,0.00
2023-01-25T02:52:38.919Z,0.00
2023-01-25T02:53:38.907Z,0.00
2023-01-25T02:54:38.881Z,0.00
2023-01-25T02:55:38.869Z,0.00
2023-01-25T02:56:38.849Z,0.00
2023-01-25T02:57:38.838Z,0.00
2023-01-25T02:58:38.812Z,0.00
2023-01-25T02:59:38.799Z,0.00
2023-01-25T03:00:38.776Z,0.00
2023-01-25T03:01:38.938Z,0.00
2023-01-25T03:02:38.833Z,0.00
2023-01-25T03:03:38.727Z,0.00
2023-01-25T03:04:38.706Z,0.00
2023-01-25T03:05:38.712Z,0.00
2023-01-25T03:06:38.675Z,0.00
2023-01-25T03:07:38.657Z,0.00
2023-01-25T03:08:38.635Z,0.00
2023-01-25T03:09:38.628Z,0.00
2023-01-25T03:10:38.601Z,0.00
2023-01-25T03:11:38.587Z,0.00
2023-01-25T03:12:38.572Z,0.00
2023-01-25T03:13:38.563Z,0.00
2023-01-25T03:14:38.532Z,0.00
2023-01-25T03:15:38.524Z,0.00
2023-01-25T03:16:38.573Z,0.00
2023-01-25T03:17:38.484Z,0.00
2023-01-25T03:18:38.458Z,0.00
2023-01-25T03:19:38.445Z,0.00
2023-01-25T03:20:38.426Z,0.00
2023-01-25T03:21:38.437Z,0.00
2023-01-25T03:22:38.416Z,0.00
2023-01-25T03:23:38.376Z,0.00
2023-01-25T03:24:38.354Z,0.00
2023-01-25T03:25:38.342Z,0.00
2023-01-25T03:26:38.324Z,0.00
2023-01-25T03:27:38.308Z,0.00
2023-01-25T03:28:38.286Z,0.00
2023-01-25T03:29:38.287Z,0.00
2023-01-25T03:30:38.254Z,0.00
2023-01-25T03:31:38.344Z,0.00
2023-01-25T03:32:38.213Z,0.00
2023-01-25T03:33:38.201Z,0.00
2023-01-25T03:34:38.178Z,0.00
2023-01-25T03:35:38.166Z,0.00
2023-01-25T03:36:38.150Z,0.00
2023-01-25T03:37:38.154Z,0.00
2023-01-25T03:38:38.109Z,0.00
2023-01-25T03:39:38.094Z,0.00
2023-01-25T03:40:38.075Z,0.00
2023-01-25T03:41:38.063Z,0.00
2023-01-25T03:42:38.049Z,0.00
2023-01-25T03:43:38.025Z,0.00
2023-01-25T03:44:38.003Z,0.00
2023-01-25T03:45:37.989Z,0.00
2023-01-25T03:46:37.977Z,0.00
2023-01-25T03:47:37.954Z,0.00
2023-01-25T03:48:37.936Z,0.00
2023-01-25T03:49:37.925Z,0.00
2023-01-25T03:50:37.903Z,0.00
2023-01-25T03:51:37.883Z,0.00
2023-01-25T03:52:37.863Z,0.00
2023-01-25T03:53:37.878Z,0.00
2023-01-25T03:54:37.828Z,0.00
2023-01-25T03:55:37.813Z,0.00
2023-01-25T03:56:37.796Z,0.00
2023-01-25T03:57:37.778Z,0.00
2023-01-25T03:58:37.763Z,0.00
2023-01-25T03:59:37.746Z,0.00
2023-01-25T04:00:37.770Z,0.00
2023-01-25T04:01:37.712Z,0.00
2023-01-25T04:02:37.723Z,0.00
2023-01-25T04:03:37.674Z,0.00
2023-01-25T04:04:37.654Z,0.00
2023-01-25T04:05:37.637Z,0.00
2023-01-25T04:06:37.617Z,0.00
2023-01-25T04:07:37.653Z,0.00
2023-01-25T04:08:37.582Z,0.00
2023-01-25T04:09:37.593Z,0.00
2023-01-25T04:10:37.548Z,0.00
2023-01-25T04:11:37.542Z,0.00
2023-01-25T04:12:37.513Z,0.00
2023-01-25T04:13:37.502Z,0.00
2023-01-25T04:14:44.247Z,0.00
2023-01-25T04:15:37.462Z,0.00
2023-01-25T04:16:37.542Z,0.00
2023-01-25T04:17:37.432Z,0.00
2023-01-25T04:18:37.415Z,0.00
2023-01-25T04:19:37.400Z,0.00
2023-01-25T04:20:37.384Z,0.00
2023-01-25T04:21:37.356Z,0.00
2023-01-25T04:22:37.336Z,0.00
2023-01-25T04:23:37.324Z,0.00
2023-01-25T04:24:37.305Z,0.00
2023-01-25T04:25:37.306Z,0.00
2023-01-25T04:26:37.266Z,0.00
2023-01-25T04:27:37.256Z,0.00
2023-01-25T04:28:37.233Z,0.00
2023-01-25T04:29:41.431Z,0.00
2023-01-25T04:30:37.197Z,0.00
2023-01-25T04:31:37.325Z,0.00
2023-01-25T04:32:37.350Z,0.00
2023-01-25T04:33:37.152Z,0.00
2023-01-25T04:34:37.131Z,0.00
2023-01-25T04:35:37.119Z,0.00
2023-01-25T04:36:37.099Z,0.00
2023-01-25T04:37:37.079Z,0.00
2023-01-25T04:38:37.058Z,0.00
2023-01-25T04:39:37.048Z,0.00
2023-01-25T04:40:37.112Z,0.00
2023-01-25T04:41:37.033Z,0.00
2023-01-25T04:42:36.987Z,0.00
2023-01-25T04:43:36.979Z,0.00
2023-01-25T04:44:36.956Z,0.00
2023-01-25T04:45:37.005Z,0.00
2023-01-25T04:46:36.918Z,0.00
2023-01-25T04:47:36.905Z,0.00
2023-01-25T04:48:36.888Z,0.00
2023-01-25T04:49:36.868Z,0.00
2023-01-25T04:50:36.848Z,0.00
2023-01-25T04:51:36.833Z,0.00
2023-01-25T04:52:36.813Z,0.00
2023-01-25T04:53:36.806Z,0.00
2023-01-25T04:54:36.777Z,0.00
2023-01-25T04:55:36.764Z,0.00
2023-01-25T04:56:36.741Z,0.00
2023-01-25T04:57:36.750Z,0.00
2023-01-25T04:58:36.731Z,0.00
2023-01-25T04:59:36.692Z,0.00
2023-01-25T05:00:36.680Z,0.00
2023-01-25T05:01:36.762Z,0.00
2023-01-25T05:02:36.775Z,0.00
2023-01-25T05:03:36.626Z,0.00
2023-01-25T05:04:36.601Z,0.00
2023-01-25T05:05:36.588Z,0.00
2023-01-25T05:06:36.565Z,0.00
2023-01-25T05:07:36.553Z,0.00
2023-01-25T05:08:36.545Z,0.00
2023-01-25T05:09:36.515Z,0.00
2023-01-25T05:10:36.499Z,0.00
2023-01-25T05:11:36.481Z,0.00
2023-01-25T05:12:36.460Z,0.00
2023-01-25T05:13:36.473Z,0.00
2023-01-25T05:14:36.424Z,0.00
2023-01-25T05:15:36.413Z,0.00
2023-01-25T05:16:36.450Z,0.00
2023-01-25T05:17:36.375Z,0.00
2023-01-25T05:18:47.957Z,0.00
2023-01-25T05:19:36.339Z,0.00
2023-01-25T05:20:36.338Z,0.00
2023-01-25T05:21:36.301Z,0.00
2023-01-25T05:22:36.310Z,0.00
2023-01-25T05:23:36.269Z,0.00
2023-01-25T05:24:36.246Z,0.00
2023-01-25T05:25:36.234Z,0.00
2023-01-25T05:26:36.212Z,0.00
2023-01-25T05:27:36.200Z,0.00
2023-01-25T05:28:36.176Z,0.00
2023-01-25T05:29:36.184Z,0.00
2023-01-25T05:30:36.163Z,0.00
2023-01-25T05:31:36.137Z,0.00
2023-01-25T05:32:36.106Z,0.00
2023-01-25T05:33:36.090Z,0.00
2023-01-25T05:34:36.071Z,0.00
2023-01-25T05:35:36.055Z,0.00
2023-01-25T05:36:36.035Z,0.00
2023-01-25T05:37:36.034Z,0.00
2023-01-25T05:38:35.998Z,0.00
2023-01-25T05:39:35.983Z,0.00
2023-01-25T05:40:35.963Z,0.00
2023-01-25T05:41:35.948Z,0.00
2023-01-25T05:42:35.927Z,0.00
2023-01-25T05:43:35.914Z,0.00
2023-01-25T05:44:35.898Z,0.00
2023-01-25T05:45:35.895Z,0.00
2023-01-25T05:46:35.857Z,0.00
2023-01-25T05:47:35.844Z,0.00
2023-01-25T05:48:35.826Z,0.00
2023-01-25T05:49:35.806Z,0.00
2023-01-25T05:50:35.789Z,0.00
2023-01-25T05:51:35.787Z,0.00
2023-01-25T05:52:35.794Z,0.00
2023-01-25T05:53:35.736Z,0.00
2023-01-25T05:54:35.724Z,0.00
2023-01-25T05:55:35.707Z,0.00
2023-01-25T05:56:35.688Z,0.00
2023-01-25T05:57:35.669Z,0.00
2023-01-25T05:58:35.649Z,0.00
2023-01-25T05:59:35.629Z,0.00
2023-01-25T06:00:35.816Z,0.00
2023-01-25T06:01:35.614Z,0.00
2023-01-25T06:02:35.734Z,0.00
2023-01-25T06:03:35.671Z,0.00
2023-01-25T06:04:35.543Z,0.00
2023-01-25T06:05:35.527Z,0.00
2023-01-25T06:06:35.507Z,0.00
2023-01-25T06:07:35.490Z,0.00
2023-01-25T06:08:35.473Z,0.00
2023-01-25T06:09:35.451Z,0.00
2023-01-25T06:10:35.441Z,0.00
2023-01-25T06:11:35.417Z,0.00
2023-01-25T06:12:35.408Z,0.00
2023-01-25T06:13:35.397Z,0.00
2023-01-25T06:14:35.367Z,0.00
2023-01-25T06:15:35.366Z,0.00
2023-01-25T06:16:35.332Z,0.00
2023-01-25T06:17:35.384Z,0.00
2023-01-25T06:18:35.296Z,0.00
2023-01-25T06:19:35.279Z,0.00
2023-01-25T06:20:35.262Z,0.00
2023-01-25T06:21:35.245Z,0.00
2023-01-25T06:22:35.225Z,0.00
2023-01-25T06:23:35.205Z,0.00
2023-01-25T06:24:35.191Z,0.00
2023-01-25T06:25:35.172Z,0.00
2023-01-25T06:26:35.162Z,0.00
2023-01-25T06:27:35.136Z,0.00
2023-01-25T06:28:35.122Z,0.00
2023-01-25T06:29:35.103Z,0.00
2023-01-25T06:30:35.088Z,0.00
2023-01-25T06:31:35.261Z,0.00
2023-01-25T06:32:35.057Z,0.00
2023-01-25T06:33:35.051Z,0.00
2023-01-25T06:34:35.015Z,0.00
2023-01-25T06:35:35.027Z,0.00
2023-01-25T06:36:34.980Z,0.00
2023-01-25T06:37:34.959Z,0.00
2023-01-25T06:38:34.943Z,0.00
2023-01-25T06:39:34.923Z,0.00
2023-01-25T06:40:34.913Z,0.00
2023-01-25T06:41:34.887Z,0.00
2023-01-25T06:42:34.871Z,0.00
2023-01-25T06:43:34.856Z,0.00
2023-01-25T06:44:34.840Z,0.00
2023-01-25T06:45:34.820Z,0.00
2023-01-25T06:46:34.891Z,0.00
2023-01-25T06:47:34.782Z,0.00
2023-01-25T06:48:34.772Z,0.00
2023-01-25T06:50:07.976Z,0.00
2023-01-25T06:50:34.727Z,0.00
2023-01-25T06:51:34.713Z,4.00
2023-01-25T06:52:34.693Z,4.00
2023-01-25T06:53:34.758Z,4.00
2023-01-25T06:54:34.660Z,4.00
2023-01-25T06:55:34.652Z,0.00
2023-01-25T06:56:34.637Z,0.00
2023-01-25T06:57:34.612Z,4.00
2023-01-25T06:58:34.587Z,4.00
2023-01-25T06:59:34.573Z,4.00
2023-01-25T07:00:34.553Z,4.00
2023-01-25T07:01:34.609Z,4.00
2023-01-25T07:02:34.597Z,4.00
2023-01-25T07:03:34.513Z,4.00
2023-01-25T07:04:34.485Z,8.00
2023-01-25T07:05:34.488Z,8.00
2023-01-25T07:06:34.445Z,4.00
2023-01-25T07:07:34.433Z,8.00
2023-01-25T07:08:34.420Z,8.00
2023-01-25T07:09:34.395Z,12.00
2023-01-25T07:10:34.379Z,8.00
2023-01-25T07:11:34.368Z,12.00
2023-01-25T07:12:34.341Z,12.00
2023-01-25T07:13:34.335Z,8.00
2023-01-25T07:14:34.320Z,12.00
2023-01-25T07:15:34.291Z,16.00
2023-01-25T07:16:34.275Z,16.00
2023-01-25T07:17:34.288Z,16.00
2023-01-25T07:18:34.236Z,20.00
2023-01-25T07:19:34.219Z,20.00
2023-01-25T07:20:34.202Z,20.00
2023-01-25T07:21:34.227Z,16.00
2023-01-25T07:22:34.162Z,20.00
2023-01-25T07:23:34.202Z,20.00
2023-01-25T07:24:34.127Z,24.00
2023-01-25T07:25:34.120Z,24.00
2023-01-25T07:26:34.128Z,24.00
2023-01-25T07:27:34.087Z,24.00
2023-01-25T07:28:34.065Z,28.00
2023-01-25T07:29:34.040Z,28.00
2023-01-25T07:30:34.021Z,32.00
2023-01-25T07:31:34.054Z,32.00
2023-01-25T07:32:33.986Z,36.00
2023-01-25T07:33:33.970Z,32.00
2023-01-25T07:34:33.952Z,36.00
2023-01-25T07:35:33.939Z,36.00
2023-01-25T07:36:33.915Z,36.00
2023-01-25T07:37:33.923Z,36.00
2023-01-25T07:38:33.882Z,40.00
2023-01-25T07:39:33.864Z,40.00
2023-01-25T07:40:33.843Z,40.00
2023-01-25T07:41:33.827Z,40.00
2023-01-25T07:42:33.807Z,44.00
2023-01-25T07:43:33.793Z,48.00
2023-01-25T07:44:33.778Z,48.00
2023-01-25T07:45:33.758Z,48.00
2023-01-25T07:46:33.734Z,52.00
2023-01-25T07:47:33.721Z,52.00
2023-01-25T07:48:33.700Z,56.00
2023-01-25T07:49:33.740Z,60.00
2023-01-25T07:50:33.666Z,64.00
2023-01-25T07:51:33.659Z,64.00
2023-01-25T07:52:33.646Z,68.00
2023-01-25T07:53:33.637Z,68.00
2023-01-25T07:54:33.644Z,68.00
2023-01-25T07:55:33.585Z,68.00
2023-01-25T07:56:33.563Z,64.00
2023-01-25T07:57:33.544Z,68.00
2023-01-25T07:58:33.527Z,76.00
2023-01-25T07:59:33.517Z,76.00
2023-01-25T08:00:33.490Z,80.00
2023-01-25T08:01:33.479Z,80.00
2023-01-25T08:02:33.459Z,84.00
2023-01-25T08:03:33.437Z,88.00
2023-01-25T08:04:33.422Z,92.00
2023-01-25T08:05:33.401Z,96.00
2023-01-25T08:06:33.381Z,100.00
2023-01-25T08:07:33.366Z,100.00
2023-01-25T08:08:33.345Z,104.00
2023-01-25T08:09:33.355Z,100.00
2023-01-25T08:10:33.309Z,104.00
2023-01-25T08:11:33.296Z,104.00
2023-01-25T08:12:33.272Z,104.00
2023-01-25T08:13:33.311Z,112.00
2023-01-25T08:14:33.241Z,112.00
2023-01-25T08:15:33.223Z,112.00
2023-01-25T08:16:33.200Z,112.00
2023-01-25T08:17:33.187Z,120.00
2023-01-25T08:18:35.769Z,116.00
2023-01-25T08:19:33.152Z,120.00
2023-01-25T08:20:33.140Z,128.00
2023-01-25T08:21:33.128Z,128.00
2023-01-25T08:22:33.095Z,132.00
2023-01-25T08:23:33.086Z,132.00
2023-01-25T08:24:33.096Z,136.00
2023-01-25T08:25:33.065Z,140.00
2023-01-25T08:26:33.024Z,136.00
2023-01-25T08:27:33.013Z,136.00
2023-01-25T08:28:32.991Z,136.00
2023-01-25T08:29:33.000Z,128.00
2023-01-25T08:30:32.954Z,132.00
2023-01-25T08:31:32.977Z,132.00
2023-01-25T08:32:32.920Z,128.00
2023-01-25T08:33:32.902Z,128.00
2023-01-25T08:34:32.881Z,128.00
2023-01-25T08:35:32.870Z,128.00
2023-01-25T08:36:32.857Z,132.00
2023-01-25T08:37:32.831Z,136.00
2023-01-25T08:38:32.828Z,136.00
2023-01-25T08:39:32.796Z,140.00
2023-01-25T08:40:34.211Z,144.00
2023-01-25T08:41:32.795Z,144.00
2023-01-25T08:42:32.742Z,148.00
2023-01-25T08:43:32.725Z,148.00
2023-01-25T08:44:32.706Z,152.00
2023-01-25T08:45:32.692Z,152.00
2023-01-25T08:46:32.669Z,156.00
2023-01-25T08:47:32.665Z,160.00
2023-01-25T08:48:32.636Z,160.00
2023-01-25T08:49:32.621Z,160.00
2023-01-25T08:50:32.628Z,164.00
2023-01-25T08:51:32.626Z,164.00
2023-01-25T08:52:32.559Z,164.00
2023-01-25T08:53:32.553Z,160.00
2023-01-25T08:54:32.525Z,156.00
2023-01-25T08:55:32.511Z,156.00
2023-01-25T08:56:32.503Z,156.00
2023-01-25T08:57:32.500Z,156.00
2023-01-25T08:58:32.456Z,152.00
2023-01-25T08:59:32.443Z,152.00
2023-01-25T09:00:32.424Z,152.00
2023-01-25T09:01:32.454Z,156.00
2023-01-25T09:02:32.389Z,156.00
2023-01-25T09:03:32.463Z,160.00
2023-01-25T09:04:32.363Z,164.00
2023-01-25T09:05:32.333Z,164.00
2023-01-25T09:06:32.317Z,164.00
2023-01-25T09:07:32.299Z,164.00
2023-01-25T09:08:32.278Z,168.00
2023-01-25T09:09:32.267Z,172.00
2023-01-25T09:10:32.242Z,172.00
2023-01-25T09:11:32.239Z,176.00
2023-01-25T09:12:32.205Z,180.00
2023-01-25T09:13:32.212Z,184.00
2023-01-25T09:14:32.229Z,196.00
2023-01-25T09:15:32.156Z,204.00
2023-01-25T09:16:32.134Z,212.00
2023-01-25T09:17:32.125Z,212.00
2023-01-25T09:18:32.099Z,212.00
2023-01-25T09:19:32.084Z,212.00
2023-01-25T09:20:34.311Z,212.00
2023-01-25T09:21:32.059Z,212.00
2023-01-25T09:22:32.052Z,212.00
2023-01-25T09:23:33.298Z,212.00
2023-01-25T09:24:32.814Z,216.00
2023-01-25T09:25:31.986Z,216.00
2023-01-25T09:26:32.402Z,216.00
2023-01-25T09:27:31.962Z,216.00
2023-01-25T09:28:31.925Z,220.00
2023-01-25T09:29:31.944Z,224.00
2023-01-25T09:30:45.571Z,224.00
2023-01-25T09:31:32.078Z,224.00
2023-01-25T09:32:31.964Z,224.00
2023-01-25T09:33:31.837Z,220.00
2023-01-25T09:34:31.833Z,220.00
2023-01-25T09:35:31.811Z,224.00
2023-01-25T09:36:31.793Z,228.00
2023-01-25T09:37:31.768Z,236.00
2023-01-25T09:38:31.746Z,248.00
2023-01-25T09:39:31.781Z,256.00
2023-01-25T09:40:31.709Z,260.00
2023-01-25T09:41:31.695Z,260.00
2023-01-25T09:42:31.683Z,260.00
2023-01-25T09:43:31.661Z,260.00
2023-01-25T09:44:31.638Z,260.00
2023-01-25T09:45:31.683Z,264.00
2023-01-25T09:46:31.671Z,276.00
2023-01-25T09:47:31.589Z,280.00
2023-01-25T09:48:31.568Z,284.00
2023-01-25T09:49:31.553Z,292.00
2023-01-25T09:50:31.543Z,296.00
2023-01-25T09:51:31.521Z,304.00
2023-01-25T09:52:31.498Z,308.00
2023-01-25T09:53:31.483Z,308.00
2023-01-25T09:54:33.761Z,312.00
2023-01-25T09:55:31.465Z,320.00
2023-01-25T09:56:31.438Z,324.00
2023-01-25T09:57:31.412Z,324.00
2023-01-25T09:58:31.399Z,336.00
2023-01-25T09:59:31.379Z,348.00
2023-01-25T10:00:31.356Z,360.00
2023-01-25T10:01:38.449Z,368.00
2023-01-25T10:02:31.427Z,372.00
2023-01-25T10:03:31.302Z,372.00
2023-01-25T10:04:31.286Z,376.00
2023-01-25T10:05:31.265Z,376.00
2023-01-25T10:06:31.248Z,384.00
2023-01-25T10:07:31.233Z,400.00
2023-01-25T10:08:31.232Z,392.00
2023-01-25T10:09:31.196Z,392.00
2023-01-25T10:10:31.192Z,388.00
2023-01-25T10:11:31.157Z,388.00
2023-01-25T10:12:31.151Z,388.00
2023-01-25T10:13:31.120Z,392.00
2023-01-25T10:14:31.105Z,396.00
2023-01-25T10:15:31.084Z,400.00
2023-01-25T10:16:32.085Z,408.00
2023-01-25T10:17:31.072Z,412.00
2023-01-25T10:18:31.036Z,408.00
2023-01-25T10:19:31.012Z,392.00
2023-01-25T10:20:30.996Z,388.00
2023-01-25T10:21:30.975Z,376.00
2023-01-25T10:22:30.964Z,376.00
2023-01-25T10:23:30.946Z,372.00
2023-01-25T10:24:30.926Z,368.00
2023-01-25T10:25:30.916Z,376.00
2023-01-25T10:26:30.890Z,376.00
2023-01-25T10:27:30.866Z,376.00
2023-01-25T10:28:30.867Z,380.00
2023-01-25T10:29:30.837Z,376.00
2023-01-25T10:30:30.815Z,376.00
2023-01-25T10:31:30.987Z,372.00
2023-01-25T10:32:30.779Z,372.00
2023-01-25T10:33:30.784Z,376.00
2023-01-25T10:34:30.743Z,376.00
2023-01-25T10:35:35.824Z,376.00
2023-01-25T10:36:30.765Z,368.00
2023-01-25T10:37:30.689Z,360.00
2023-01-25T10:38:30.676Z,356.00
2023-01-25T10:39:30.657Z,368.00
2023-01-25T10:40:30.640Z,384.00
2023-01-25T10:41:30.613Z,404.00
2023-01-25T10:42:30.598Z,420.00
2023-01-25T10:43:30.579Z,440.00
2023-01-25T10:44:30.574Z,436.00
2023-01-25T10:45:30.540Z,444.00
2023-01-25T10:46:30.540Z,440.00
2023-01-25T10:47:30.513Z,436.00
2023-01-25T10:48:30.491Z,428.00
2023-01-25T10:49:30.499Z,420.00
2023-01-25T10:50:30.452Z,416.00
2023-01-25T10:51:30.436Z,416.00
2023-01-25T10:52:30.419Z,416.00
2023-01-25T10:53:30.396Z,416.00
2023-01-25T10:54:30.381Z,404.00
2023-01-25T10:55:30.365Z,396.00
2023-01-25T10:56:30.350Z,388.00
2023-01-25T10:57:30.325Z,380.00
2023-01-25T10:58:30.316Z,380.00
2023-01-25T10:59:30.289Z,372.00
2023-01-25T11:00:30.865Z,368.00
2023-01-25T11:01:30.293Z,364.00
2023-01-25T11:02:30.284Z,356.00
2023-01-25T11:03:30.224Z,356.00
2023-01-25T11:04:30.270Z,352.00
2023-01-25T11:05:30.470Z,360.00
2023-01-25T11:06:30.168Z,360.00
2023-01-25T11:07:30.147Z,360.00
2023-01-25T11:08:30.137Z,360.00
2023-01-25T11:09:30.111Z,352.00
2023-01-25T11:10:30.097Z,344.00
2023-01-25T11:11:30.091Z,340.00
2023-01-25T11:12:30.060Z,340.00
2023-01-25T11:13:30.050Z,340.00
2023-01-25T11:14:30.030Z,336.00
2023-01-25T11:15:30.013Z,336.00
2023-01-25T11:16:29.991Z,336.00
2023-01-25T11:17:29.975Z,332.00
2023-01-25T11:18:29.954Z,332.00
2023-01-25T11:19:29.932Z,340.00
2023-01-25T11:20:29.918Z,336.00
2023-01-25T11:21:29.922Z,332.00
2023-01-25T11:22:29.881Z,328.00
2023-01-25T11:23:29.863Z,328.00
2023-01-25T11:24:29.845Z,332.00
2023-01-25T11:25:29.829Z,332.00
2023-01-25T11:26:29.809Z,328.00
2023-01-25T11:27:29.798Z,324.00
2023-01-25T11:28:29.775Z,320.00
2023-01-25T11:29:29.754Z,316.00
2023-01-25T11:30:29.743Z,312.00
2023-01-25T11:31:29.776Z,308.00
2023-01-25T11:32:29.703Z,304.00
2023-01-25T11:33:29.684Z,308.00
2023-01-25T11:34:29.679Z,308.00
2023-01-25T11:35:29.648Z,304.00
2023-01-25T11:36:29.644Z,304.00
2023-01-25T11:37:29.630Z,304.00
2023-01-25T11:38:29.605Z,304.00
2023-01-25T11:39:29.581Z,308.00
2023-01-25T11:40:29.563Z,308.00
2023-01-25T11:41:29.540Z,308.00
2023-01-25T11:42:29.523Z,308.00
2023-01-25T11:43:29.509Z,312.00
2023-01-25T11:44:29.492Z,316.00
2023-01-25T11:45:29.473Z,316.00
2023-01-25T11:46:29.525Z,316.00
2023-01-25T11:47:29.433Z,312.00
2023-01-25T11:48:29.419Z,308.00
2023-01-25T11:49:29.398Z,304.00
2023-01-25T11:50:29.383Z,304.00
2023-01-25T11:51:29.368Z,308.00
2023-01-25T11:52:29.356Z,324.00
2023-01-25T11:53:29.347Z,328.00
2023-01-25T11:54:29.481Z,320.00
2023-01-25T11:55:29.311Z,316.00
2023-01-25T11:56:29.276Z,316.00
2023-01-25T11:57:29.262Z,312.00
2023-01-25T11:58:29.269Z,304.00
2023-01-25T11:59:29.223Z,304.00
2023-01-25T12:00:29.210Z,300.00
2023-01-25T12:01:29.183Z,304.00
2023-01-25T12:02:29.194Z,308.00
2023-01-25T12:03:29.151Z,316.00
2023-01-25T12:04:29.138Z,308.00
2023-01-25T12:05:29.111Z,308.00
2023-01-25T12:06:29.097Z,304.00
2023-01-25T12:07:29.129Z,308.00
2023-01-25T12:08:30.953Z,312.00
2023-01-25T12:09:29.076Z,316.00
2023-01-25T12:10:29.032Z,308.00
2023-01-25T12:11:29.008Z,312.00
2023-01-25T12:12:28.994Z,308.00
2023-01-25T12:13:28.972Z,304.00
2023-01-25T12:14:28.963Z,304.00
2023-01-25T12:15:28.985Z,300.00
2023-01-25T12:16:29.001Z,296.00
2023-01-25T12:17:28.896Z,296.00
2023-01-25T12:18:28.886Z,304.00
2023-01-25T12:19:28.864Z,308.00
2023-01-25T12:20:28.898Z,308.00
2023-01-25T12:21:31.892Z,308.00
2023-01-25T12:22:28.812Z,312.00
2023-01-25T12:23:28.791Z,316.00
2023-01-25T12:24:28.776Z,308.00
2023-01-25T12:25:28.795Z,308.00
2023-01-25T12:26:28.741Z,312.00
2023-01-25T12:27:28.719Z,312.00
2023-01-25T12:28:28.710Z,312.00
2023-01-25T12:29:28.689Z,304.00
2023-01-25T12:30:28.668Z,304.00
2023-01-25T12:31:28.682Z,300.00
2023-01-25T12:32:28.633Z,296.00
2023-01-25T12:33:28.618Z,296.00
2023-01-25T12:34:28.601Z,308.00
2023-01-25T12:35:28.576Z,312.00
2023-01-25T12:36:28.564Z,320.00
2023-01-25T12:37:28.540Z,332.00
2023-01-25T12:38:28.528Z,352.00
2023-01-25T12:39:28.505Z,388.00
2023-01-25T12:40:28.492Z,424.00
2023-01-25T12:41:28.497Z,472.00
2023-01-25T12:42:28.456Z,496.00
2023-01-25T12:43:28.433Z,480.00
2023-01-25T12:44:28.472Z,472.00
2023-01-25T12:45:28.396Z,468.00
2023-01-25T12:46:28.406Z,460.00
2023-01-25T12:47:28.362Z,440.00
2023-01-25T12:48:28.346Z,436.00
2023-01-25T12:49:28.326Z,436.00
2023-01-25T12:50:28.312Z,436.00
2023-01-25T12:51:28.289Z,440.00
2023-01-25T12:52:28.275Z,428.00
2023-01-25T12:53:28.255Z,408.00
2023-01-25T12:54:28.239Z,392.00
2023-01-25T12:55:28.231Z,372.00
2023-01-25T12:56:28.204Z,360.00
2023-01-25T12:57:28.213Z,340.00